sensor_id;sensor_type;location;lat;lon;timestamp;temperature;humidity
11246;DHT22;59870;50.106;8.580;2023-04-30T00:01:09;17.00;81.20
11246;DHT22;59870;50.106;8.580;2023-04-30T00:07:40;16.00;80.60
11246;DHT22;59870;50.106;8.580;2023-04-30T00:10:09;16.80;81.40
11246;DHT22;59870;50.106;8.580;2023-04-30T00:12:39;16.80;81.50
11246;DHT22;59870;50.106;8.580;2023-04-30T00:15:07;16.40;81.20
11246;DHT22;59870;50.106;8.580;2023-04-30T00:20:39;16.30;81.30
11246;DHT22;59870;50.106;8.580;2023-04-30T00:48:52;16.10;81.60
11246;DHT22;59870;50.106;8.580;2023-04-30T00:51:25;16.40;81.90
11246;DHT22;59870;50.106;8.580;2023-04-30T00:53:54;16.10;81.40
11246;DHT22;59870;50.106;8.580;2023-04-30T00:56:22;16.50;82.00
11246;DHT22;59870;50.106;8.580;2023-04-30T00:58:51;16.10;81.30
11246;DHT22;59870;50.106;8.580;2023-04-30T01:04:44;16.00;81.30
11246;DHT22;59870;50.106;8.580;2023-04-30T01:21:28;15.70;81.80
11246;DHT22;59870;50.106;8.580;2023-04-30T01:24:31;15.20;81.40
11246;DHT22;59870;50.106;8.580;2023-04-30T01:31:27;15.10;81.40
11246;DHT22;59870;50.106;8.580;2023-04-30T01:34:32;15.30;81.60
11246;DHT22;59870;50.106;8.580;2023-04-30T01:56:36;15.20;82.20
11246;DHT22;59870;50.106;8.580;2023-04-30T01:59:08;15.20;82.50
11246;DHT22;59870;50.106;8.580;2023-04-30T02:02:02;15.50;83.10
11246;DHT22;59870;50.106;8.580;2023-04-30T02:05:13;15.10;82.60
11246;DHT22;59870;50.106;8.580;2023-04-30T02:12:03;14.90;83.00
11246;DHT22;59870;50.106;8.580;2023-04-30T02:16:15;14.80;83.60
11246;DHT22;59870;50.106;8.580;2023-04-30T02:18:44;14.70;83.80
11246;DHT22;59870;50.106;8.580;2023-04-30T02:21:12;14.70;83.90
11246;DHT22;59870;50.106;8.580;2023-04-30T02:27:18;14.10;83.80
11246;DHT22;59870;50.106;8.580;2023-04-30T02:38:02;14.40;84.20
11246;DHT22;59870;50.106;8.580;2023-04-30T02:48:55;14.20;84.10
11246;DHT22;59870;50.106;8.580;2023-04-30T02:55:57;14.10;84.60
11246;DHT22;59870;50.106;8.580;2023-04-30T02:58:25;14.10;85.20
11246;DHT22;59870;50.106;8.580;2023-04-30T03:01:09;14.00;85.40
11246;DHT22;59870;50.106;8.580;2023-04-30T03:04:26;14.00;85.70
11246;DHT22;59870;50.106;8.580;2023-04-30T03:15:19;13.90;86.40
11246;DHT22;59870;50.106;8.580;2023-04-30T03:24:30;13.90;86.10
11246;DHT22;59870;50.106;8.580;2023-04-30T03:34:17;14.00;86.60
11246;DHT22;59870;50.106;8.580;2023-04-30T03:43:05;14.00;86.30
11246;DHT22;59870;50.106;8.580;2023-04-30T03:51:06;14.10;86.30
11246;DHT22;59870;50.106;8.580;2023-04-30T03:53:34;14.10;86.60
11246;DHT22;59870;50.106;8.580;2023-04-30T03:56:02;14.50;87.20
11246;DHT22;59870;50.106;8.580;2023-04-30T03:58:31;14.00;86.70
11246;DHT22;59870;50.106;8.580;2023-04-30T04:02:58;13.60;86.40
11246;DHT22;59870;50.106;8.580;2023-04-30T04:13:41;13.40;86.40
11246;DHT22;59870;50.106;8.580;2023-04-30T04:24:41;13.90;87.50
11246;DHT22;59870;50.106;8.580;2023-04-30T04:29:04;13.90;87.40
11246;DHT22;59870;50.106;8.580;2023-04-30T04:32:37;14.00;86.70
11246;DHT22;59870;50.106;8.580;2023-04-30T04:35:15;13.40;86.50
11246;DHT22;59870;50.106;8.580;2023-04-30T04:37:49;14.00;87.30
11246;DHT22;59870;50.106;8.580;2023-04-30T04:40:17;14.00;87.60
11246;DHT22;59870;50.106;8.580;2023-04-30T04:42:48;14.00;87.50
11246;DHT22;59870;50.106;8.580;2023-04-30T04:45:22;14.00;87.60
11246;DHT22;59870;50.106;8.580;2023-04-30T04:47:50;14.00;87.60
11246;DHT22;59870;50.106;8.580;2023-04-30T04:51:40;14.00;87.40
11246;DHT22;59870;50.106;8.580;2023-04-30T04:54:55;14.10;87.30
11246;DHT22;59870;50.106;8.580;2023-04-30T05:01:11;13.70;86.40
11246;DHT22;59870;50.106;8.580;2023-04-30T05:08:31;14.30;86.40
11246;DHT22;59870;50.106;8.580;2023-04-30T05:14:37;14.20;86.20
11246;DHT22;59870;50.106;8.580;2023-04-30T05:17:05;14.10;85.50
11246;DHT22;59870;50.106;8.580;2023-04-30T05:26:43;13.70;84.90
11246;DHT22;59870;50.106;8.580;2023-04-30T05:29:11;14.30;85.10
11246;DHT22;59870;50.106;8.580;2023-04-30T05:35:52;14.40;84.50
11246;DHT22;59870;50.106;8.580;2023-04-30T05:58:45;15.10;82.00
11246;DHT22;59870;50.106;8.580;2023-04-30T06:01:13;15.20;81.40
11246;DHT22;59870;50.106;8.580;2023-04-30T06:03:41;15.70;81.70
11246;DHT22;59870;50.106;8.580;2023-04-30T06:18:06;16.00;78.50
11246;DHT22;59870;50.106;8.580;2023-04-30T06:45:22;18.50;68.90
11246;DHT22;59870;50.106;8.580;2023-04-30T06:54:26;19.00;67.80
11246;DHT22;59870;50.106;8.580;2023-04-30T07:12:40;20.40;65.40
11246;DHT22;59870;50.106;8.580;2023-04-30T07:16:44;20.40;61.40
11246;DHT22;59870;50.106;8.580;2023-04-30T07:19:12;20.20;60.20
11246;DHT22;59870;50.106;8.580;2023-04-30T07:21:40;20.90;60.20
11246;DHT22;59870;50.106;8.580;2023-04-30T07:27:59;20.50;59.60
11246;DHT22;59870;50.106;8.580;2023-04-30T07:30:27;21.30;59.50
11246;DHT22;59870;50.106;8.580;2023-04-30T07:32:55;21.60;59.20
11246;DHT22;59870;50.106;8.580;2023-04-30T07:35:23;21.50;59.40
11246;DHT22;59870;50.106;8.580;2023-04-30T07:37:50;21.60;58.20
11246;DHT22;59870;50.106;8.580;2023-04-30T07:40:17;21.80;58.10
11246;DHT22;59870;50.106;8.580;2023-04-30T07:43:01;22.40;58.70
11246;DHT22;59870;50.106;8.580;2023-04-30T07:45:29;22.10;57.60
11246;DHT22;59870;50.106;8.580;2023-04-30T07:47:57;22.30;58.00
11246;DHT22;59870;50.106;8.580;2023-04-30T07:50:25;22.70;57.90
11246;DHT22;59870;50.106;8.580;2023-04-30T07:52:54;23.00;56.80
11246;DHT22;59870;50.106;8.580;2023-04-30T07:55:22;23.20;55.50
11246;DHT22;59870;50.106;8.580;2023-04-30T07:57:50;23.50;56.70
11246;DHT22;59870;50.106;8.580;2023-04-30T08:00:17;23.80;53.40
11246;DHT22;59870;50.106;8.580;2023-04-30T08:02:45;24.10;54.20
11246;DHT22;59870;50.106;8.580;2023-04-30T08:05:15;24.40;54.10
11246;DHT22;59870;50.106;8.580;2023-04-30T08:07:42;24.70;53.00
11246;DHT22;59870;50.106;8.580;2023-04-30T08:10:11;25.00;51.80
11246;DHT22;59870;50.106;8.580;2023-04-30T08:12:39;25.30;50.70
11246;DHT22;59870;50.106;8.580;2023-04-30T08:15:07;25.40;49.20
11246;DHT22;59870;50.106;8.580;2023-04-30T08:17:34;25.50;50.60
11246;DHT22;59870;50.106;8.580;2023-04-30T08:20:03;25.70;49.10
11246;DHT22;59870;50.106;8.580;2023-04-30T08:22:31;26.00;48.50
11246;DHT22;59870;50.106;8.580;2023-04-30T08:24:59;26.20;48.30
11246;DHT22;59870;50.106;8.580;2023-04-30T08:27:30;26.20;47.10
11246;DHT22;59870;50.106;8.580;2023-04-30T08:29:58;26.40;47.40
11246;DHT22;59870;50.106;8.580;2023-04-30T08:32:26;26.60;47.00
11246;DHT22;59870;50.106;8.580;2023-04-30T08:34:53;26.60;45.60
11246;DHT22;59870;50.106;8.580;2023-04-30T08:37:21;26.70;45.10
11246;DHT22;59870;50.106;8.580;2023-04-30T08:39:49;26.80;46.30
11246;DHT22;59870;50.106;8.580;2023-04-30T08:42:18;27.00;46.10
11246;DHT22;59870;50.106;8.580;2023-04-30T08:44:47;27.30;44.50
11246;DHT22;59870;50.106;8.580;2023-04-30T08:47:15;27.20;44.20
11246;DHT22;59870;50.106;8.580;2023-04-30T08:49:44;27.10;44.50
11246;DHT22;59870;50.106;8.580;2023-04-30T08:52:12;26.80;45.10
11246;DHT22;59870;50.106;8.580;2023-04-30T08:54:40;26.80;44.60
11246;DHT22;59870;50.106;8.580;2023-04-30T08:57:08;26.90;43.30
11246;DHT22;59870;50.106;8.580;2023-04-30T08:59:36;27.00;44.20
11246;DHT22;59870;50.106;8.580;2023-04-30T09:02:03;27.40;43.90
11246;DHT22;59870;50.106;8.580;2023-04-30T09:04:31;26.90;44.30
11246;DHT22;59870;50.106;8.580;2023-04-30T09:06:59;27.00;43.90
11246;DHT22;59870;50.106;8.580;2023-04-30T09:09:37;27.20;43.00
11246;DHT22;59870;50.106;8.580;2023-04-30T09:12:16;27.10;43.70
11246;DHT22;59870;50.106;8.580;2023-04-30T09:15:01;26.90;43.30
11246;DHT22;59870;50.106;8.580;2023-04-30T09:17:32;27.00;44.50
11246;DHT22;59870;50.106;8.580;2023-04-30T09:22:35;27.60;43.80
11246;DHT22;59870;50.106;8.580;2023-04-30T09:25:04;27.50;42.10
11246;DHT22;59870;50.106;8.580;2023-04-30T09:27:31;28.10;41.10
11246;DHT22;59870;50.106;8.580;2023-04-30T09:30:00;28.20;41.30
11246;DHT22;59870;50.106;8.580;2023-04-30T09:32:27;28.40;40.40
11246;DHT22;59870;50.106;8.580;2023-04-30T09:34:55;28.10;40.80
11246;DHT22;59870;50.106;8.580;2023-04-30T09:37:36;27.80;40.40
11246;DHT22;59870;50.106;8.580;2023-04-30T09:40:05;27.60;41.70
11246;DHT22;59870;50.106;8.580;2023-04-30T09:42:32;27.40;41.70
11246;DHT22;59870;50.106;8.580;2023-04-30T09:45:00;27.30;42.20
11246;DHT22;59870;50.106;8.580;2023-04-30T09:47:28;27.00;42.20
11246;DHT22;59870;50.106;8.580;2023-04-30T09:49:59;26.90;42.90
11246;DHT22;59870;50.106;8.580;2023-04-30T09:52:26;26.40;43.10
11246;DHT22;59870;50.106;8.580;2023-04-30T09:54:54;26.00;42.60
11246;DHT22;59870;50.106;8.580;2023-04-30T09:57:22;25.50;42.10
11246;DHT22;59870;50.106;8.580;2023-04-30T09:59:51;25.20;44.10
11246;DHT22;59870;50.106;8.580;2023-04-30T10:02:20;25.00;42.30
11246;DHT22;59870;50.106;8.580;2023-04-30T10:04:55;24.70;41.00
11246;DHT22;59870;50.106;8.580;2023-04-30T10:07:25;24.40;42.10
11246;DHT22;59870;50.106;8.580;2023-04-30T10:09:59;24.00;44.60
11246;DHT22;59870;50.106;8.580;2023-04-30T10:12:37;23.70;46.40
11246;DHT22;59870;50.106;8.580;2023-04-30T10:15:27;24.20;46.50
11246;DHT22;59870;50.106;8.580;2023-04-30T10:18:01;23.40;47.40
11246;DHT22;59870;50.106;8.580;2023-04-30T10:20:32;23.20;47.80
11246;DHT22;59870;50.106;8.580;2023-04-30T10:23:01;23.10;48.10
11246;DHT22;59870;50.106;8.580;2023-04-30T10:25:29;22.90;47.70
11246;DHT22;59870;50.106;8.580;2023-04-30T10:27:56;22.70;48.90
11246;DHT22;59870;50.106;8.580;2023-04-30T10:30:26;22.70;49.00
11246;DHT22;59870;50.106;8.580;2023-04-30T10:35:59;22.50;49.70
11246;DHT22;59870;50.106;8.580;2023-04-30T10:38:29;22.40;50.00
11246;DHT22;59870;50.106;8.580;2023-04-30T10:40:59;22.40;48.70
11246;DHT22;59870;50.106;8.580;2023-04-30T10:43:30;22.30;49.40
11246;DHT22;59870;50.106;8.580;2023-04-30T10:45:59;22.40;49.00
11246;DHT22;59870;50.106;8.580;2023-04-30T10:48:27;22.40;49.60
11246;DHT22;59870;50.106;8.580;2023-04-30T10:50:57;22.80;50.30
11246;DHT22;59870;50.106;8.580;2023-04-30T10:53:25;22.30;49.30
11246;DHT22;59870;50.106;8.580;2023-04-30T10:56:03;22.60;50.20
11246;DHT22;59870;50.106;8.580;2023-04-30T10:58:37;22.10;50.20
11246;DHT22;59870;50.106;8.580;2023-04-30T11:01:10;22.00;50.30
11246;DHT22;59870;50.106;8.580;2023-04-30T11:03:41;22.00;51.00
11246;DHT22;59870;50.106;8.580;2023-04-30T11:06:13;22.10;50.80
11246;DHT22;59870;50.106;8.580;2023-04-30T11:08:45;22.10;50.40
11246;DHT22;59870;50.106;8.580;2023-04-30T11:11:17;22.00;50.00
11246;DHT22;59870;50.106;8.580;2023-04-30T11:13:58;22.20;50.20
11246;DHT22;59870;50.106;8.580;2023-04-30T11:16:28;22.10;50.10
11246;DHT22;59870;50.106;8.580;2023-04-30T11:19:05;22.00;50.50
11246;DHT22;59870;50.106;8.580;2023-04-30T11:27:24;22.00;49.70
11246;DHT22;59870;50.106;8.580;2023-04-30T11:29:52;22.00;49.80
11246;DHT22;59870;50.106;8.580;2023-04-30T11:32:23;22.50;49.90
11246;DHT22;59870;50.106;8.580;2023-04-30T11:34:50;21.80;50.00
11246;DHT22;59870;50.106;8.580;2023-04-30T11:37:32;21.70;51.00
11246;DHT22;59870;50.106;8.580;2023-04-30T11:40:02;21.70;50.90
11246;DHT22;59870;50.106;8.580;2023-04-30T11:42:30;21.60;51.00
11246;DHT22;59870;50.106;8.580;2023-04-30T11:45:07;21.60;49.70
11246;DHT22;59870;50.106;8.580;2023-04-30T11:47:43;21.70;51.00
11246;DHT22;59870;50.106;8.580;2023-04-30T11:50:13;21.80;49.70
11246;DHT22;59870;50.106;8.580;2023-04-30T11:52:41;21.90;49.30
11246;DHT22;59870;50.106;8.580;2023-04-30T11:55:13;21.90;48.50
11246;DHT22;59870;50.106;8.580;2023-04-30T11:57:43;21.90;47.40
11246;DHT22;59870;50.106;8.580;2023-04-30T12:00:15;21.90;48.40
11246;DHT22;59870;50.106;8.580;2023-04-30T12:02:45;21.90;49.00
11246;DHT22;59870;50.106;8.580;2023-04-30T12:05:19;21.80;47.90
11246;DHT22;59870;50.106;8.580;2023-04-30T12:07:54;21.90;47.50
11246;DHT22;59870;50.106;8.580;2023-04-30T12:10:23;21.90;46.40
11246;DHT22;59870;50.106;8.580;2023-04-30T12:12:52;21.90;46.50
11246;DHT22;59870;50.106;8.580;2023-04-30T12:15:22;21.80;46.30
11246;DHT22;59870;50.106;8.580;2023-04-30T12:17:54;21.80;46.80
11246;DHT22;59870;50.106;8.580;2023-04-30T12:20:24;21.80;46.50
11246;DHT22;59870;50.106;8.580;2023-04-30T12:22:52;21.80;46.60
11246;DHT22;59870;50.106;8.580;2023-04-30T12:25:21;21.90;46.50
11246;DHT22;59870;50.106;8.580;2023-04-30T12:27:51;21.80;46.80
11246;DHT22;59870;50.106;8.580;2023-04-30T12:30:24;21.80;46.80
11246;DHT22;59870;50.106;8.580;2023-04-30T12:32:56;21.80;47.70
11246;DHT22;59870;50.106;8.580;2023-04-30T12:35:27;21.90;48.80
11246;DHT22;59870;50.106;8.580;2023-04-30T12:38:05;22.10;47.70
11246;DHT22;59870;50.106;8.580;2023-04-30T12:40:33;22.10;47.40
11246;DHT22;59870;50.106;8.580;2023-04-30T12:43:02;22.20;46.90
11246;DHT22;59870;50.106;8.580;2023-04-30T12:45:47;22.20;46.40
11246;DHT22;59870;50.106;8.580;2023-04-30T12:48:15;22.20;46.80
11246;DHT22;59870;50.106;8.580;2023-04-30T12:50:47;22.30;46.80
11246;DHT22;59870;50.106;8.580;2023-04-30T12:53:15;22.30;46.30
11246;DHT22;59870;50.106;8.580;2023-04-30T12:55:42;22.30;45.50
11246;DHT22;59870;50.106;8.580;2023-04-30T12:58:12;22.30;46.70
11246;DHT22;59870;50.106;8.580;2023-04-30T13:00:50;22.40;46.40
11246;DHT22;59870;50.106;8.580;2023-04-30T13:03:19;22.40;45.90
11246;DHT22;59870;50.106;8.580;2023-04-30T13:05:50;22.40;46.50
11246;DHT22;59870;50.106;8.580;2023-04-30T13:08:18;22.40;46.70
11246;DHT22;59870;50.106;8.580;2023-04-30T13:10:47;22.40;48.10
11246;DHT22;59870;50.106;8.580;2023-04-30T13:13:16;23.10;47.00
11246;DHT22;59870;50.106;8.580;2023-04-30T13:15:44;22.60;46.50
11246;DHT22;59870;50.106;8.580;2023-04-30T13:18:12;22.70;46.70
11246;DHT22;59870;50.106;8.580;2023-04-30T13:20:42;22.70;46.80
11246;DHT22;59870;50.106;8.580;2023-04-30T13:23:12;22.70;46.00
11246;DHT22;59870;50.106;8.580;2023-04-30T13:25:40;22.80;46.00
11246;DHT22;59870;50.106;8.580;2023-04-30T13:28:08;22.80;45.80
11246;DHT22;59870;50.106;8.580;2023-04-30T13:30:36;22.80;46.20
11246;DHT22;59870;50.106;8.580;2023-04-30T13:33:03;23.30;47.00
11246;DHT22;59870;50.106;8.580;2023-04-30T13:35:31;23.00;46.70
11246;DHT22;59870;50.106;8.580;2023-04-30T13:37:58;22.70;46.80
11246;DHT22;59870;50.106;8.580;2023-04-30T13:40:26;22.60;46.90
11246;DHT22;59870;50.106;8.580;2023-04-30T13:42:53;22.60;46.80
11246;DHT22;59870;50.106;8.580;2023-04-30T13:45:21;22.60;46.90
11246;DHT22;59870;50.106;8.580;2023-04-30T13:47:49;22.60;47.10
11246;DHT22;59870;50.106;8.580;2023-04-30T13:50:16;22.70;46.80
11246;DHT22;59870;50.106;8.580;2023-04-30T13:52:43;22.70;46.30
11246;DHT22;59870;50.106;8.580;2023-04-30T13:55:11;22.70;46.90
11246;DHT22;59870;50.106;8.580;2023-04-30T13:57:38;22.60;46.40
11246;DHT22;59870;50.106;8.580;2023-04-30T14:00:06;22.70;46.70
11246;DHT22;59870;50.106;8.580;2023-04-30T14:02:35;22.70;47.30
11246;DHT22;59870;50.106;8.580;2023-04-30T14:05:03;22.80;47.70
11246;DHT22;59870;50.106;8.580;2023-04-30T14:07:33;22.80;47.40
11246;DHT22;59870;50.106;8.580;2023-04-30T14:10:01;22.90;47.00
11246;DHT22;59870;50.106;8.580;2023-04-30T14:12:28;22.90;46.50
11246;DHT22;59870;50.106;8.580;2023-04-30T14:14:57;22.90;46.90
11246;DHT22;59870;50.106;8.580;2023-04-30T14:17:25;23.00;46.00
11246;DHT22;59870;50.106;8.580;2023-04-30T14:19:53;23.00;46.40
11246;DHT22;59870;50.106;8.580;2023-04-30T14:22:21;23.00;46.20
11246;DHT22;59870;50.106;8.580;2023-04-30T14:24:51;22.90;46.50
11246;DHT22;59870;50.106;8.580;2023-04-30T14:27:19;22.90;46.10
11246;DHT22;59870;50.106;8.580;2023-04-30T14:29:47;22.90;45.80
11246;DHT22;59870;50.106;8.580;2023-04-30T14:32:14;22.90;46.20
11246;DHT22;59870;50.106;8.580;2023-04-30T14:34:42;22.90;46.90
11246;DHT22;59870;50.106;8.580;2023-04-30T14:37:10;22.90;47.00
11246;DHT22;59870;50.106;8.580;2023-04-30T14:39:38;23.00;47.50
11246;DHT22;59870;50.106;8.580;2023-04-30T14:42:05;23.10;46.40
11246;DHT22;59870;50.106;8.580;2023-04-30T14:44:33;23.10;45.50
11246;DHT22;59870;50.106;8.580;2023-04-30T14:47:02;23.00;45.60
11246;DHT22;59870;50.106;8.580;2023-04-30T14:49:29;23.00;46.40
11246;DHT22;59870;50.106;8.580;2023-04-30T14:51:57;23.00;46.40
11246;DHT22;59870;50.106;8.580;2023-04-30T14:54:24;23.00;46.10
11246;DHT22;59870;50.106;8.580;2023-04-30T14:56:52;23.10;46.80
11246;DHT22;59870;50.106;8.580;2023-04-30T14:59:19;23.00;46.20
11246;DHT22;59870;50.106;8.580;2023-04-30T15:01:47;23.10;45.60
11246;DHT22;59870;50.106;8.580;2023-04-30T15:04:14;23.00;45.90
11246;DHT22;59870;50.106;8.580;2023-04-30T15:06:42;23.00;46.00
11246;DHT22;59870;50.106;8.580;2023-04-30T15:09:09;23.00;46.30
11246;DHT22;59870;50.106;8.580;2023-04-30T15:11:38;22.90;46.80
11246;DHT22;59870;50.106;8.580;2023-04-30T15:14:06;22.80;46.50
11246;DHT22;59870;50.106;8.580;2023-04-30T15:16:34;22.80;46.20
11246;DHT22;59870;50.106;8.580;2023-04-30T15:19:01;22.80;46.10
11246;DHT22;59870;50.106;8.580;2023-04-30T15:21:29;23.50;46.20
11246;DHT22;59870;50.106;8.580;2023-04-30T15:23:57;23.00;45.80
11246;DHT22;59870;50.106;8.580;2023-04-30T15:26:24;23.00;46.80
11246;DHT22;59870;50.106;8.580;2023-04-30T15:28:52;23.30;45.80
11246;DHT22;59870;50.106;8.580;2023-04-30T15:31:19;23.10;45.60
11246;DHT22;59870;50.106;8.580;2023-04-30T15:33:47;23.00;45.90
11246;DHT22;59870;50.106;8.580;2023-04-30T15:36:14;23.00;46.70
11246;DHT22;59870;50.106;8.580;2023-04-30T15:38:42;22.90;45.90
11246;DHT22;59870;50.106;8.580;2023-04-30T15:41:11;22.80;46.30
11246;DHT22;59870;50.106;8.580;2023-04-30T15:43:38;23.30;47.10
11246;DHT22;59870;50.106;8.580;2023-04-30T15:46:06;22.70;46.90
11246;DHT22;59870;50.106;8.580;2023-04-30T15:48:34;22.60;47.10
11246;DHT22;59870;50.106;8.580;2023-04-30T15:51:02;23.00;47.00
11246;DHT22;59870;50.106;8.580;2023-04-30T15:53:30;22.50;46.60
11246;DHT22;59870;50.106;8.580;2023-04-30T15:55:57;22.90;46.80
11246;DHT22;59870;50.106;8.580;2023-04-30T15:58:24;23.00;47.40
11246;DHT22;59870;50.106;8.580;2023-04-30T16:00:52;22.40;46.70
11246;DHT22;59870;50.106;8.580;2023-04-30T16:03:20;22.80;47.20
11246;DHT22;59870;50.106;8.580;2023-04-30T16:05:47;22.50;46.70
11246;DHT22;59870;50.106;8.580;2023-04-30T16:08:15;22.60;46.70
11246;DHT22;59870;50.106;8.580;2023-04-30T16:10:42;22.60;46.10
11246;DHT22;59870;50.106;8.580;2023-04-30T16:13:10;22.70;46.50
11246;DHT22;59870;50.106;8.580;2023-04-30T16:15:37;22.70;46.70
11246;DHT22;59870;50.106;8.580;2023-04-30T16:18:05;22.70;47.50
11246;DHT22;59870;50.106;8.580;2023-04-30T16:20:34;22.70;47.20
11246;DHT22;59870;50.106;8.580;2023-04-30T16:23:03;22.60;46.80
11246;DHT22;59870;50.106;8.580;2023-04-30T16:25:31;22.60;47.40
11246;DHT22;59870;50.106;8.580;2023-04-30T16:27:58;22.60;47.60
11246;DHT22;59870;50.106;8.580;2023-04-30T16:30:25;23.10;48.50
11246;DHT22;59870;50.106;8.580;2023-04-30T16:32:53;22.60;47.30
11246;DHT22;59870;50.106;8.580;2023-04-30T16:35:20;22.60;48.20
11246;DHT22;59870;50.106;8.580;2023-04-30T16:37:47;23.20;48.40
11246;DHT22;59870;50.106;8.580;2023-04-30T16:40:16;22.60;48.30
11246;DHT22;59870;50.106;8.580;2023-04-30T16:42:43;22.60;48.20
11246;DHT22;59870;50.106;8.580;2023-04-30T16:45:10;23.20;48.20
11246;DHT22;59870;50.106;8.580;2023-04-30T16:47:38;22.80;47.00
11246;DHT22;59870;50.106;8.580;2023-04-30T16:50:07;22.50;46.60
11246;DHT22;59870;50.106;8.580;2023-04-30T16:52:34;22.50;47.30
11246;DHT22;59870;50.106;8.580;2023-04-30T16:55:02;22.90;47.70
11246;DHT22;59870;50.106;8.580;2023-04-30T16:57:30;22.50;47.30
11246;DHT22;59870;50.106;8.580;2023-04-30T16:59:58;22.50;47.50
11246;DHT22;59870;50.106;8.580;2023-04-30T17:02:25;22.50;47.40
11246;DHT22;59870;50.106;8.580;2023-04-30T17:04:53;22.50;47.60
11246;DHT22;59870;50.106;8.580;2023-04-30T17:07:24;22.50;47.60
11246;DHT22;59870;50.106;8.580;2023-04-30T17:10:19;22.50;47.70
11246;DHT22;59870;50.106;8.580;2023-04-30T17:12:48;22.60;47.80
11246;DHT22;59870;50.106;8.580;2023-04-30T17:15:15;23.10;48.30
11246;DHT22;59870;50.106;8.580;2023-04-30T17:17:45;22.50;48.10
11246;DHT22;59870;50.106;8.580;2023-04-30T17:20:12;22.50;48.20
11246;DHT22;59870;50.106;8.580;2023-04-30T17:22:40;22.50;48.20
11246;DHT22;59870;50.106;8.580;2023-04-30T17:25:08;22.40;48.40
11246;DHT22;59870;50.106;8.580;2023-04-30T17:27:36;22.40;48.60
11246;DHT22;59870;50.106;8.580;2023-04-30T17:30:04;22.30;48.70
11246;DHT22;59870;50.106;8.580;2023-04-30T17:32:32;22.40;48.50
11246;DHT22;59870;50.106;8.580;2023-04-30T17:34:59;22.30;48.20
11246;DHT22;59870;50.106;8.580;2023-04-30T17:37:59;22.70;48.30
11246;DHT22;59870;50.106;8.580;2023-04-30T17:40:27;22.20;48.40
11246;DHT22;59870;50.106;8.580;2023-04-30T17:42:55;22.40;48.60
11246;DHT22;59870;50.106;8.580;2023-04-30T17:45:22;22.20;48.50
11246;DHT22;59870;50.106;8.580;2023-04-30T17:47:51;21.90;48.60
11246;DHT22;59870;50.106;8.580;2023-04-30T17:50:18;21.90;49.00
11246;DHT22;59870;50.106;8.580;2023-04-30T17:52:46;22.30;49.30
11246;DHT22;59870;50.106;8.580;2023-04-30T17:55:14;21.90;49.30
11246;DHT22;59870;50.106;8.580;2023-04-30T17:57:42;22.30;49.00
11246;DHT22;59870;50.106;8.580;2023-04-30T18:00:10;22.30;48.90
11246;DHT22;59870;50.106;8.580;2023-04-30T18:02:40;21.70;49.00
11246;DHT22;59870;50.106;8.580;2023-04-30T18:05:08;21.70;49.00
11246;DHT22;59870;50.106;8.580;2023-04-30T18:07:37;21.70;48.70
11246;DHT22;59870;50.106;8.580;2023-04-30T18:10:05;21.70;49.00
11246;DHT22;59870;50.106;8.580;2023-04-30T18:12:34;21.70;49.10
11246;DHT22;59870;50.106;8.580;2023-04-30T18:15:01;21.70;49.00
11246;DHT22;59870;50.106;8.580;2023-04-30T18:17:32;21.60;48.70
11246;DHT22;59870;50.106;8.580;2023-04-30T18:20:06;21.60;49.00
11246;DHT22;59870;50.106;8.580;2023-04-30T18:22:34;21.50;49.40
11246;DHT22;59870;50.106;8.580;2023-04-30T18:25:10;21.50;49.40
11246;DHT22;59870;50.106;8.580;2023-04-30T18:27:39;21.50;49.30
11246;DHT22;59870;50.106;8.580;2023-04-30T18:30:10;21.50;49.40
11246;DHT22;59870;50.106;8.580;2023-04-30T18:32:39;21.50;49.50
11246;DHT22;59870;50.106;8.580;2023-04-30T18:35:08;21.50;49.50
11246;DHT22;59870;50.106;8.580;2023-04-30T18:37:36;21.40;49.60
11246;DHT22;59870;50.106;8.580;2023-04-30T18:40:04;21.40;49.80
11246;DHT22;59870;50.106;8.580;2023-04-30T18:42:31;21.40;50.10
11246;DHT22;59870;50.106;8.580;2023-04-30T18:45:00;21.90;50.60
11246;DHT22;59870;50.106;8.580;2023-04-30T18:47:27;21.20;50.10
11246;DHT22;59870;50.106;8.580;2023-04-30T18:49:59;21.20;50.30
11246;DHT22;59870;50.106;8.580;2023-04-30T18:52:28;21.20;50.00
11246;DHT22;59870;50.106;8.580;2023-04-30T18:54:56;21.50;50.80
11246;DHT22;59870;50.106;8.580;2023-04-30T18:57:23;21.00;50.70
11246;DHT22;59870;50.106;8.580;2023-04-30T18:59:52;20.90;50.70
11246;DHT22;59870;50.106;8.580;2023-04-30T19:02:21;20.90;50.70
11246;DHT22;59870;50.106;8.580;2023-04-30T19:04:50;21.20;51.20
11246;DHT22;59870;50.106;8.580;2023-04-30T19:07:17;20.80;51.30
11246;DHT22;59870;50.106;8.580;2023-04-30T19:09:45;20.80;51.10
11246;DHT22;59870;50.106;8.580;2023-04-30T19:12:15;21.10;51.80
11246;DHT22;59870;50.106;8.580;2023-04-30T19:14:44;20.60;51.50
11246;DHT22;59870;50.106;8.580;2023-04-30T19:17:12;21.00;51.70
11246;DHT22;59870;50.106;8.580;2023-04-30T19:19:42;20.90;52.00
11246;DHT22;59870;50.106;8.580;2023-04-30T19:22:09;20.50;51.90
11246;DHT22;59870;50.106;8.580;2023-04-30T19:24:37;20.50;52.00
11246;DHT22;59870;50.106;8.580;2023-04-30T19:27:05;20.40;52.20
11246;DHT22;59870;50.106;8.580;2023-04-30T19:29:32;20.30;52.30
11246;DHT22;59870;50.106;8.580;2023-04-30T19:32:01;20.30;52.10
11246;DHT22;59870;50.106;8.580;2023-04-30T19:34:32;19.80;51.70
11246;DHT22;59870;50.106;8.580;2023-04-30T19:37:00;20.20;52.20
11246;DHT22;59870;50.106;8.580;2023-04-30T19:39:29;20.20;52.10
11246;DHT22;59870;50.106;8.580;2023-04-30T19:42:02;20.50;52.90
11246;DHT22;59870;50.106;8.580;2023-04-30T19:44:30;20.60;53.20
11246;DHT22;59870;50.106;8.580;2023-04-30T19:46:57;20.40;53.10
11246;DHT22;59870;50.106;8.580;2023-04-30T19:49:25;20.00;52.90
11246;DHT22;59870;50.106;8.580;2023-04-30T19:51:53;19.90;52.70
11246;DHT22;59870;50.106;8.580;2023-04-30T19:54:24;19.90;52.90
11246;DHT22;59870;50.106;8.580;2023-04-30T19:56:54;20.10;53.10
11246;DHT22;59870;50.106;8.580;2023-04-30T19:59:28;19.50;53.30
11246;DHT22;59870;50.106;8.580;2023-04-30T20:01:56;19.70;53.70
11246;DHT22;59870;50.106;8.580;2023-04-30T20:04:24;20.10;53.80
11246;DHT22;59870;50.106;8.580;2023-04-30T20:06:52;19.60;53.90
11246;DHT22;59870;50.106;8.580;2023-04-30T20:09:23;20.00;54.20
11246;DHT22;59870;50.106;8.580;2023-04-30T20:11:53;19.50;54.00
11246;DHT22;59870;50.106;8.580;2023-04-30T20:14:21;19.40;54.10
11246;DHT22;59870;50.106;8.580;2023-04-30T20:26:31;19.20;54.80
11246;DHT22;59870;50.106;8.580;2023-04-30T20:29:02;19.10;54.70
11246;DHT22;59870;50.106;8.580;2023-04-30T20:31:36;18.60;55.40
11246;DHT22;59870;50.106;8.580;2023-04-30T20:34:04;19.00;55.50
11246;DHT22;59870;50.106;8.580;2023-04-30T20:39:42;18.90;56.20
11246;DHT22;59870;50.106;8.580;2023-04-30T20:54:58;18.60;56.80